sensor_id;sensor_type;location;lat;lon;timestamp;P1;durP1;ratioP1;P2;durP2;ratioP2
39426;SDS011;25938;48.470;1.486;2023-02-11T00:01:45;22.63;;;16.00;;
39426;SDS011;25938;48.470;1.486;2023-02-11T00:04:10;21.73;;;14.48;;
39426;SDS011;25938;48.470;1.486;2023-02-11T00:06:36;20.67;;;15.45;;
39426;SDS011;25938;48.470;1.486;2023-02-11T00:09:02;20.60;;;15.32;;
39426;SDS011;25938;48.470;1.486;2023-02-11T00:11:28;23.38;;;15.85;;
39426;SDS011;25938;48.470;1.486;2023-02-11T00:13:54;22.45;;;16.23;;
39426;SDS011;25938;48.470;1.486;2023-02-11T00:16:21;21.05;;;16.02;;
39426;SDS011;25938;48.470;1.486;2023-02-11T00:18:47;20.17;;;15.40;;
39426;SDS011;25938;48.470;1.486;2023-02-11T00:21:18;20.00;;;15.65;;
39426;SDS011;25938;48.470;1.486;2023-02-11T00:23:48;22.15;;;16.15;;
39426;SDS011;25938;48.470;1.486;2023-02-11T00:26:15;22.50;;;15.23;;
39426;SDS011;25938;48.470;1.486;2023-02-11T00:28:47;19.40;;;14.95;;
39426;SDS011;25938;48.470;1.486;2023-02-11T00:31:15;24.73;;;15.52;;
39426;SDS011;25938;48.470;1.486;2023-02-11T00:33:41;19.83;;;14.15;;
39426;SDS011;25938;48.470;1.486;2023-02-11T00:36:10;21.38;;;14.85;;
39426;SDS011;25938;48.470;1.486;2023-02-11T00:38:42;21.30;;;14.98;;
39426;SDS011;25938;48.470;1.486;2023-02-11T00:41:08;18.75;;;15.55;;
39426;SDS011;25938;48.470;1.486;2023-02-11T00:43:34;21.05;;;15.35;;
39426;SDS011;25938;48.470;1.486;2023-02-11T00:46:00;20.27;;;14.02;;
39426;SDS011;25938;48.470;1.486;2023-02-11T00:48:26;19.15;;;14.93;;
39426;SDS011;25938;48.470;1.486;2023-02-11T00:50:52;18.08;;;14.35;;
39426;SDS011;25938;48.470;1.486;2023-02-11T00:53:18;23.45;;;14.65;;
39426;SDS011;25938;48.470;1.486;2023-02-11T00:55:43;18.73;;;15.35;;
39426;SDS011;25938;48.470;1.486;2023-02-11T00:58:09;18.85;;;15.35;;
39426;SDS011;25938;48.470;1.486;2023-02-11T01:00:35;21.10;;;14.73;;
39426;SDS011;25938;48.470;1.486;2023-02-11T01:03:00;18.50;;;13.80;;
39426;SDS011;25938;48.470;1.486;2023-02-11T01:05:26;21.95;;;13.73;;
39426;SDS011;25938;48.470;1.486;2023-02-11T01:07:52;18.48;;;14.10;;
39426;SDS011;25938;48.470;1.486;2023-02-11T01:10:18;18.90;;;13.93;;
39426;SDS011;25938;48.470;1.486;2023-02-11T01:12:44;19.83;;;14.27;;
39426;SDS011;25938;48.470;1.486;2023-02-11T01:15:10;16.48;;;12.60;;
39426;SDS011;25938;48.470;1.486;2023-02-11T01:17:40;17.13;;;13.45;;
39426;SDS011;25938;48.470;1.486;2023-02-11T01:20:06;16.67;;;13.50;;
39426;SDS011;25938;48.470;1.486;2023-02-11T01:22:33;20.10;;;13.85;;
39426;SDS011;25938;48.470;1.486;2023-02-11T01:25:03;19.75;;;13.35;;
39426;SDS011;25938;48.470;1.486;2023-02-11T01:27:30;19.40;;;13.43;;
39426;SDS011;25938;48.470;1.486;2023-02-11T01:29:55;18.27;;;14.25;;
39426;SDS011;25938;48.470;1.486;2023-02-11T01:32:21;19.23;;;13.48;;
39426;SDS011;25938;48.470;1.486;2023-02-11T01:34:46;16.35;;;12.60;;
39426;SDS011;25938;48.470;1.486;2023-02-11T01:37:12;18.05;;;13.23;;
39426;SDS011;25938;48.470;1.486;2023-02-11T01:39:38;16.67;;;13.23;;
39426;SDS011;25938;48.470;1.486;2023-02-11T01:42:03;19.95;;;13.15;;
39426;SDS011;25938;48.470;1.486;2023-02-11T01:44:31;15.63;;;12.77;;
39426;SDS011;25938;48.470;1.486;2023-02-11T01:47:02;15.48;;;12.57;;
39426;SDS011;25938;48.470;1.486;2023-02-11T01:49:31;18.52;;;13.15;;
39426;SDS011;25938;48.470;1.486;2023-02-11T01:54:41;20.08;;;12.90;;
39426;SDS011;25938;48.470;1.486;2023-02-11T01:57:28;15.18;;;12.10;;
39426;SDS011;25938;48.470;1.486;2023-02-11T02:02:39;16.77;;;11.85;;
39426;SDS011;25938;48.470;1.486;2023-02-11T02:05:19;14.68;;;11.90;;
39426;SDS011;25938;48.470;1.486;2023-02-11T02:13:00;15.65;;;11.85;;
39426;SDS011;25938;48.470;1.486;2023-02-11T02:17:58;19.55;;;13.10;;
39426;SDS011;25938;48.470;1.486;2023-02-11T02:25:56;15.18;;;11.35;;
39426;SDS011;25938;48.470;1.486;2023-02-11T02:34:18;14.32;;;11.13;;
39426;SDS011;25938;48.470;1.486;2023-02-11T02:36:55;13.27;;;11.38;;
39426;SDS011;25938;48.470;1.486;2023-02-11T02:39:36;15.32;;;11.30;;
39426;SDS011;25938;48.470;1.486;2023-02-11T02:42:03;15.32;;;11.65;;
39426;SDS011;25938;48.470;1.486;2023-02-11T02:44:30;17.27;;;11.43;;
39426;SDS011;25938;48.470;1.486;2023-02-11T02:46:56;12.82;;;10.77;;
39426;SDS011;25938;48.470;1.486;2023-02-11T02:49:22;14.65;;;10.30;;
39426;SDS011;25938;48.470;1.486;2023-02-11T02:51:57;17.50;;;11.50;;
39426;SDS011;25938;48.470;1.486;2023-02-11T03:00:43;13.00;;;10.07;;
39426;SDS011;25938;48.470;1.486;2023-02-11T03:06:04;12.98;;;10.13;;
39426;SDS011;25938;48.470;1.486;2023-02-11T03:08:37;15.73;;;10.80;;
39426;SDS011;25938;48.470;1.486;2023-02-11T03:11:09;14.90;;;10.10;;
39426;SDS011;25938;48.470;1.486;2023-02-11T03:13:38;14.98;;;11.13;;
39426;SDS011;25938;48.470;1.486;2023-02-11T03:16:12;13.60;;;10.98;;
39426;SDS011;25938;48.470;1.486;2023-02-11T03:18:43;16.63;;;10.48;;
39426;SDS011;25938;48.470;1.486;2023-02-11T03:21:16;16.17;;;10.63;;
39426;SDS011;25938;48.470;1.486;2023-02-11T03:29:04;12.93;;;9.80;;
39426;SDS011;25938;48.470;1.486;2023-02-11T03:32:05;14.57;;;10.27;;
39426;SDS011;25938;48.470;1.486;2023-02-11T03:42:37;12.93;;;10.63;;
39426;SDS011;25938;48.470;1.486;2023-02-11T03:45:11;11.85;;;9.73;;
39426;SDS011;25938;48.470;1.486;2023-02-11T03:47:41;13.75;;;10.18;;
39426;SDS011;25938;48.470;1.486;2023-02-11T03:50:11;14.18;;;9.98;;
39426;SDS011;25938;48.470;1.486;2023-02-11T03:52:40;12.43;;;9.70;;
39426;SDS011;25938;48.470;1.486;2023-02-11T03:55:08;12.18;;;10.45;;
39426;SDS011;25938;48.470;1.486;2023-02-11T03:57:36;12.95;;;9.55;;
39426;SDS011;25938;48.470;1.486;2023-02-11T04:00:03;11.30;;;9.57;;
39426;SDS011;25938;48.470;1.486;2023-02-11T04:02:31;12.18;;;9.65;;
39426;SDS011;25938;48.470;1.486;2023-02-11T04:04:59;12.25;;;9.35;;
39426;SDS011;25938;48.470;1.486;2023-02-11T04:07:25;13.30;;;10.45;;
39426;SDS011;25938;48.470;1.486;2023-02-11T04:09:51;14.75;;;9.60;;
39426;SDS011;25938;48.470;1.486;2023-02-11T04:12:17;11.93;;;9.63;;
39426;SDS011;25938;48.470;1.486;2023-02-11T04:14:42;13.95;;;10.05;;
39426;SDS011;25938;48.470;1.486;2023-02-11T04:17:08;11.30;;;9.77;;
39426;SDS011;25938;48.470;1.486;2023-02-11T04:19:33;15.02;;;10.05;;
39426;SDS011;25938;48.470;1.486;2023-02-11T04:21:59;12.10;;;8.98;;
39426;SDS011;25938;48.470;1.486;2023-02-11T04:24:25;12.20;;;9.50;;
39426;SDS011;25938;48.470;1.486;2023-02-11T04:26:51;13.55;;;10.50;;
39426;SDS011;25938;48.470;1.486;2023-02-11T04:29:17;12.68;;;9.95;;
39426;SDS011;25938;48.470;1.486;2023-02-11T04:31:43;12.93;;;9.63;;
39426;SDS011;25938;48.470;1.486;2023-02-11T04:34:08;14.20;;;9.90;;
39426;SDS011;25938;48.470;1.486;2023-02-11T04:36:34;14.13;;;10.55;;
39426;SDS011;25938;48.470;1.486;2023-02-11T04:39:00;10.88;;;9.38;;
39426;SDS011;25938;48.470;1.486;2023-02-11T04:41:25;15.50;;;10.05;;
39426;SDS011;25938;48.470;1.486;2023-02-11T04:43:51;12.50;;;9.38;;
39426;SDS011;25938;48.470;1.486;2023-02-11T04:46:16;13.65;;;10.10;;
39426;SDS011;25938;48.470;1.486;2023-02-11T04:48:42;10.15;;;8.63;;
39426;SDS011;25938;48.470;1.486;2023-02-11T04:51:08;14.73;;;10.18;;
39426;SDS011;25938;48.470;1.486;2023-02-11T04:53:33;12.85;;;10.88;;
39426;SDS011;25938;48.470;1.486;2023-02-11T04:55:59;13.23;;;9.48;;
39426;SDS011;25938;48.470;1.486;2023-02-11T04:58:25;11.43;;;8.98;;
39426;SDS011;25938;48.470;1.486;2023-02-11T05:00:50;10.27;;;8.55;;
39426;SDS011;25938;48.470;1.486;2023-02-11T05:03:16;12.00;;;9.82;;
39426;SDS011;25938;48.470;1.486;2023-02-11T05:05:42;10.85;;;9.05;;
39426;SDS011;25938;48.470;1.486;2023-02-11T05:08:08;12.18;;;9.52;;
39426;SDS011;25938;48.470;1.486;2023-02-11T05:10:34;13.13;;;9.70;;
39426;SDS011;25938;48.470;1.486;2023-02-11T05:13:00;12.60;;;9.05;;
39426;SDS011;25938;48.470;1.486;2023-02-11T05:15:26;11.48;;;9.73;;
39426;SDS011;25938;48.470;1.486;2023-02-11T05:17:52;12.18;;;10.00;;
39426;SDS011;25938;48.470;1.486;2023-02-11T05:20:17;11.93;;;10.07;;
39426;SDS011;25938;48.470;1.486;2023-02-11T05:22:43;13.00;;;9.40;;
39426;SDS011;25938;48.470;1.486;2023-02-11T05:25:09;11.73;;;9.57;;
39426;SDS011;25938;48.470;1.486;2023-02-11T05:27:34;13.30;;;9.60;;
39426;SDS011;25938;48.470;1.486;2023-02-11T05:30:00;13.43;;;9.95;;
39426;SDS011;25938;48.470;1.486;2023-02-11T05:32:26;14.18;;;9.82;;
39426;SDS011;25938;48.470;1.486;2023-02-11T05:34:51;12.38;;;9.68;;
39426;SDS011;25938;48.470;1.486;2023-02-11T05:37:17;10.45;;;9.27;;
39426;SDS011;25938;48.470;1.486;2023-02-11T05:39:45;12.45;;;9.93;;
39426;SDS011;25938;48.470;1.486;2023-02-11T05:42:12;13.20;;;9.80;;
39426;SDS011;25938;48.470;1.486;2023-02-11T05:44:38;12.57;;;10.35;;
39426;SDS011;25938;48.470;1.486;2023-02-11T05:47:03;13.02;;;10.18;;
39426;SDS011;25938;48.470;1.486;2023-02-11T05:49:29;11.15;;;9.88;;
39426;SDS011;25938;48.470;1.486;2023-02-11T05:51:55;12.18;;;9.85;;
39426;SDS011;25938;48.470;1.486;2023-02-11T05:54:20;14.25;;;9.75;;
39426;SDS011;25938;48.470;1.486;2023-02-11T05:56:46;12.73;;;10.15;;
39426;SDS011;25938;48.470;1.486;2023-02-11T05:59:12;14.75;;;10.35;;
39426;SDS011;25938;48.470;1.486;2023-02-11T06:01:38;18.48;;;11.30;;
39426;SDS011;25938;48.470;1.486;2023-02-11T06:04:04;12.38;;;10.32;;
39426;SDS011;25938;48.470;1.486;2023-02-11T06:06:30;14.82;;;9.57;;
39426;SDS011;25938;48.470;1.486;2023-02-11T06:08:56;12.85;;;11.30;;
39426;SDS011;25938;48.470;1.486;2023-02-11T06:11:21;11.43;;;9.82;;
39426;SDS011;25938;48.470;1.486;2023-02-11T06:13:47;13.95;;;11.48;;
39426;SDS011;25938;48.470;1.486;2023-02-11T06:16:13;14.57;;;10.57;;
39426;SDS011;25938;48.470;1.486;2023-02-11T06:18:38;13.60;;;9.90;;
39426;SDS011;25938;48.470;1.486;2023-02-11T06:21:08;14.32;;;10.38;;
39426;SDS011;25938;48.470;1.486;2023-02-11T06:23:35;13.85;;;10.93;;
39426;SDS011;25938;48.470;1.486;2023-02-11T06:26:02;14.68;;;9.93;;
39426;SDS011;25938;48.470;1.486;2023-02-11T06:28:28;13.73;;;10.15;;
39426;SDS011;25938;48.470;1.486;2023-02-11T06:30:57;13.13;;;10.27;;
39426;SDS011;25938;48.470;1.486;2023-02-11T06:33:28;12.02;;;10.43;;
39426;SDS011;25938;48.470;1.486;2023-02-11T06:35:53;11.98;;;9.30;;
39426;SDS011;25938;48.470;1.486;2023-02-11T06:38:19;13.57;;;10.40;;
39426;SDS011;25938;48.470;1.486;2023-02-11T06:40:48;12.20;;;10.27;;
39426;SDS011;25938;48.470;1.486;2023-02-11T06:43:14;14.52;;;10.75;;
39426;SDS011;25938;48.470;1.486;2023-02-11T06:45:40;13.07;;;10.05;;
39426;SDS011;25938;48.470;1.486;2023-02-11T06:48:06;12.60;;;9.57;;
39426;SDS011;25938;48.470;1.486;2023-02-11T06:50:31;15.13;;;10.65;;
39426;SDS011;25938;48.470;1.486;2023-02-11T06:53:00;11.15;;;9.60;;
39426;SDS011;25938;48.470;1.486;2023-02-11T06:55:26;12.57;;;10.32;;
39426;SDS011;25938;48.470;1.486;2023-02-11T06:57:51;12.70;;;9.13;;
39426;SDS011;25938;48.470;1.486;2023-02-11T07:00:17;16.02;;;11.07;;
39426;SDS011;25938;48.470;1.486;2023-02-11T07:02:43;14.57;;;10.88;;
39426;SDS011;25938;48.470;1.486;2023-02-11T07:05:08;12.68;;;10.05;;
39426;SDS011;25938;48.470;1.486;2023-02-11T07:07:35;13.10;;;10.13;;
39426;SDS011;25938;48.470;1.486;2023-02-11T07:10:01;14.82;;;10.48;;
39426;SDS011;25938;48.470;1.486;2023-02-11T07:12:28;13.23;;;10.20;;
39426;SDS011;25938;48.470;1.486;2023-02-11T07:14:54;12.50;;;9.77;;
39426;SDS011;25938;48.470;1.486;2023-02-11T07:17:20;12.80;;;9.88;;
39426;SDS011;25938;48.470;1.486;2023-02-11T07:19:46;13.18;;;9.82;;
39426;SDS011;25938;48.470;1.486;2023-02-11T07:22:12;12.77;;;10.43;;
39426;SDS011;25938;48.470;1.486;2023-02-11T07:24:40;12.55;;;10.00;;
39426;SDS011;25938;48.470;1.486;2023-02-11T07:27:06;12.88;;;10.18;;
39426;SDS011;25938;48.470;1.486;2023-02-11T07:29:32;13.43;;;10.57;;
39426;SDS011;25938;48.470;1.486;2023-02-11T07:31:57;14.02;;;10.68;;
39426;SDS011;25938;48.470;1.486;2023-02-11T07:34:23;13.25;;;10.30;;
39426;SDS011;25938;48.470;1.486;2023-02-11T07:36:49;15.20;;;10.75;;
39426;SDS011;25938;48.470;1.486;2023-02-11T07:39:15;14.05;;;11.25;;
39426;SDS011;25938;48.470;1.486;2023-02-11T07:41:40;17.73;;;11.25;;
39426;SDS011;25938;48.470;1.486;2023-02-11T07:44:07;17.65;;;10.63;;
39426;SDS011;25938;48.470;1.486;2023-02-11T07:46:32;14.43;;;10.80;;
39426;SDS011;25938;48.470;1.486;2023-02-11T07:48:59;14.90;;;11.63;;
39426;SDS011;25938;48.470;1.486;2023-02-11T07:51:26;17.00;;;11.73;;
39426;SDS011;25938;48.470;1.486;2023-02-11T07:53:54;15.85;;;11.80;;
39426;SDS011;25938;48.470;1.486;2023-02-11T07:56:21;16.08;;;11.15;;
39426;SDS011;25938;48.470;1.486;2023-02-11T07:58:47;16.15;;;11.55;;
39426;SDS011;25938;48.470;1.486;2023-02-11T08:01:15;15.07;;;10.60;;
39426;SDS011;25938;48.470;1.486;2023-02-11T08:03:44;15.05;;;11.60;;
39426;SDS011;25938;48.470;1.486;2023-02-11T08:06:12;19.40;;;12.18;;
39426;SDS011;25938;48.470;1.486;2023-02-11T08:08:39;14.70;;;11.25;;
39426;SDS011;25938;48.470;1.486;2023-02-11T08:11:09;15.32;;;11.10;;
39426;SDS011;25938;48.470;1.486;2023-02-11T08:13:36;15.90;;;11.95;;
39426;SDS011;25938;48.470;1.486;2023-02-11T08:16:03;16.60;;;11.45;;
39426;SDS011;25938;48.470;1.486;2023-02-11T08:18:29;15.75;;;10.90;;
39426;SDS011;25938;48.470;1.486;2023-02-11T08:20:58;14.45;;;11.30;;
39426;SDS011;25938;48.470;1.486;2023-02-11T08:23:33;14.52;;;10.35;;
39426;SDS011;25938;48.470;1.486;2023-02-11T08:26:04;14.13;;;10.70;;
39426;SDS011;25938;48.470;1.486;2023-02-11T08:28:34;15.93;;;10.95;;
39426;SDS011;25938;48.470;1.486;2023-02-11T08:31:07;14.68;;;10.68;;
39426;SDS011;25938;48.470;1.486;2023-02-11T08:33:34;12.43;;;10.30;;
39426;SDS011;25938;48.470;1.486;2023-02-11T08:36:00;15.38;;;10.05;;
39426;SDS011;25938;48.470;1.486;2023-02-11T08:38:31;10.95;;;9.43;;
39426;SDS011;25938;48.470;1.486;2023-02-11T08:40:58;13.77;;;9.55;;
39426;SDS011;25938;48.470;1.486;2023-02-11T08:43:24;12.38;;;9.88;;
39426;SDS011;25938;48.470;1.486;2023-02-11T08:45:50;15.05;;;10.55;;
39426;SDS011;25938;48.470;1.486;2023-02-11T08:48:15;19.00;;;13.70;;
39426;SDS011;25938;48.470;1.486;2023-02-11T08:50:41;14.45;;;11.55;;
39426;SDS011;25938;48.470;1.486;2023-02-11T08:53:07;12.07;;;10.30;;
39426;SDS011;25938;48.470;1.486;2023-02-11T08:55:32;13.63;;;10.85;;
39426;SDS011;25938;48.470;1.486;2023-02-11T08:57:58;15.30;;;10.40;;
39426;SDS011;25938;48.470;1.486;2023-02-11T09:00:24;14.85;;;9.77;;
39426;SDS011;25938;48.470;1.486;2023-02-11T09:02:50;12.07;;;9.52;;
39426;SDS011;25938;48.470;1.486;2023-02-11T09:05:15;11.45;;;8.98;;
39426;SDS011;25938;48.470;1.486;2023-02-11T09:07:41;13.25;;;8.90;;
39426;SDS011;25938;48.470;1.486;2023-02-11T09:10:07;11.27;;;8.07;;
39426;SDS011;25938;48.470;1.486;2023-02-11T09:12:33;15.75;;;9.98;;
39426;SDS011;25938;48.470;1.486;2023-02-11T09:14:58;10.82;;;8.25;;
39426;SDS011;25938;48.470;1.486;2023-02-11T09:17:24;8.25;;;6.28;;
39426;SDS011;25938;48.470;1.486;2023-02-11T09:19:50;10.18;;;8.20;;
39426;SDS011;25938;48.470;1.486;2023-02-11T09:22:15;9.75;;;8.25;;
39426;SDS011;25938;48.470;1.486;2023-02-11T09:24:41;8.90;;;7.35;;
39426;SDS011;25938;48.470;1.486;2023-02-11T09:27:07;10.23;;;7.50;;
39426;SDS011;25938;48.470;1.486;2023-02-11T09:29:32;11.27;;;8.15;;
39426;SDS011;25938;48.470;1.486;2023-02-11T09:31:58;9.07;;;6.97;;
39426;SDS011;25938;48.470;1.486;2023-02-11T09:34:23;9.75;;;7.10;;
39426;SDS011;25938;48.470;1.486;2023-02-11T09:36:50;7.00;;;6.30;;
39426;SDS011;25938;48.470;1.486;2023-02-11T09:39:16;9.73;;;6.90;;
39426;SDS011;25938;48.470;1.486;2023-02-11T09:44:32;8.25;;;6.50;;
39426;SDS011;25938;48.470;1.486;2023-02-11T09:47:00;9.13;;;7.00;;
39426;SDS011;25938;48.470;1.486;2023-02-11T09:49:50;8.90;;;6.95;;
39426;SDS011;25938;48.470;1.486;2023-02-11T09:52:34;9.88;;;7.25;;
39426;SDS011;25938;48.470;1.486;2023-02-11T09:55:02;7.78;;;6.40;;
39426;SDS011;25938;48.470;1.486;2023-02-11T09:57:35;8.82;;;6.90;;
39426;SDS011;25938;48.470;1.486;2023-02-11T10:00:06;6.90;;;5.80;;
39426;SDS011;25938;48.470;1.486;2023-02-11T10:02:55;8.50;;;5.80;;
39426;SDS011;25938;48.470;1.486;2023-02-11T10:11:35;8.05;;;5.70;;
39426;SDS011;25938;48.470;1.486;2023-02-11T10:22:40;6.55;;;4.63;;
39426;SDS011;25938;48.470;1.486;2023-02-11T10:25:28;8.32;;;4.35;;
39426;SDS011;25938;48.470;1.486;2023-02-11T10:27:58;23.40;;;5.22;;
39426;SDS011;25938;48.470;1.486;2023-02-11T10:30:32;5.78;;;4.20;;
39426;SDS011;25938;48.470;1.486;2023-02-11T10:35:39;7.20;;;5.85;;
39426;SDS011;25938;48.470;1.486;2023-02-11T10:38:07;4.75;;;3.38;;
39426;SDS011;25938;48.470;1.486;2023-02-11T10:40:34;4.80;;;3.42;;
39426;SDS011;25938;48.470;1.486;2023-02-11T10:43:02;4.38;;;3.40;;
39426;SDS011;25938;48.470;1.486;2023-02-11T10:45:33;3.88;;;3.17;;
39426;SDS011;25938;48.470;1.486;2023-02-11T10:48:03;4.50;;;3.20;;
39426;SDS011;25938;48.470;1.486;2023-02-11T10:50:31;3.67;;;3.05;;
39426;SDS011;25938;48.470;1.486;2023-02-11T10:53:18;5.20;;;3.60;;
39426;SDS011;25938;48.470;1.486;2023-02-11T10:55:52;4.20;;;2.78;;
39426;SDS011;25938;48.470;1.486;2023-02-11T10:58:24;2.67;;;2.47;;
39426;SDS011;25938;48.470;1.486;2023-02-11T11:00:53;3.03;;;2.60;;
39426;SDS011;25938;48.470;1.486;2023-02-11T11:03:22;2.78;;;2.45;;
39426;SDS011;25938;48.470;1.486;2023-02-11T11:06:00;2.80;;;2.55;;
39426;SDS011;25938;48.470;1.486;2023-02-11T11:08:47;2.88;;;2.58;;
39426;SDS011;25938;48.470;1.486;2023-02-11T11:11:16;2.47;;;2.05;;
39426;SDS011;25938;48.470;1.486;2023-02-11T11:16:18;3.63;;;2.03;;
39426;SDS011;25938;48.470;1.486;2023-02-11T11:18:47;2.50;;;2.20;;
39426;SDS011;25938;48.470;1.486;2023-02-11T11:21:24;5.50;;;2.22;;
39426;SDS011;25938;48.470;1.486;2023-02-11T11:24:01;2.00;;;1.83;;
39426;SDS011;25938;48.470;1.486;2023-02-11T11:26:37;3.30;;;2.10;;
39426;SDS011;25938;48.470;1.486;2023-02-11T11:29:09;3.88;;;2.30;;
39426;SDS011;25938;48.470;1.486;2023-02-11T11:31:55;6.28;;;2.90;;
39426;SDS011;25938;48.470;1.486;2023-02-11T11:40:20;5.82;;;2.40;;
39426;SDS011;25938;48.470;1.486;2023-02-11T11:43:00;2.67;;;2.40;;
39426;SDS011;25938;48.470;1.486;2023-02-11T11:45:30;4.63;;;2.22;;
39426;SDS011;25938;48.470;1.486;2023-02-11T11:58:38;3.50;;;1.90;;
39426;SDS011;25938;48.470;1.486;2023-02-11T12:04:14;2.13;;;1.90;;
39426;SDS011;25938;48.470;1.486;2023-02-11T12:19:57;1.83;;;1.33;;
39426;SDS011;25938;48.470;1.486;2023-02-11T12:25:50;1.85;;;1.45;;
39426;SDS011;25938;48.470;1.486;2023-02-11T12:39:07;1.50;;;1.38;;
39426;SDS011;25938;48.470;1.486;2023-02-11T12:53:19;1.33;;;1.08;;
39426;SDS011;25938;48.470;1.486;2023-02-11T12:56:07;1.55;;;1.20;;
39426;SDS011;25938;48.470;1.486;2023-02-11T12:58:40;2.83;;;1.20;;
39426;SDS011;25938;48.470;1.486;2023-02-11T13:01:18;1.55;;;1.00;;
39426;SDS011;25938;48.470;1.486;2023-02-11T13:03:46;1.33;;;0.75;;
39426;SDS011;25938;48.470;1.486;2023-02-11T13:06:19;2.45;;;1.15;;
39426;SDS011;25938;48.470;1.486;2023-02-11T13:08:52;2.10;;;1.00;;
39426;SDS011;25938;48.470;1.486;2023-02-11T13:11:23;2.10;;;1.30;;
39426;SDS011;25938;48.470;1.486;2023-02-11T13:14:11;1.45;;;1.23;;
39426;SDS011;25938;48.470;1.486;2023-02-11T13:17:03;1.40;;;1.27;;
39426;SDS011;25938;48.470;1.486;2023-02-11T13:27:43;1.30;;;1.15;;
39426;SDS011;25938;48.470;1.486;2023-02-11T13:30:35;2.72;;;1.00;;
39426;SDS011;25938;48.470;1.486;2023-02-11T13:33:12;1.80;;;1.10;;
39426;SDS011;25938;48.470;1.486;2023-02-11T13:35:47;1.67;;;1.10;;
39426;SDS011;25938;48.470;1.486;2023-02-11T13:38:34;1.65;;;1.00;;
39426;SDS011;25938;48.470;1.486;2023-02-11T13:43:31;5.80;;;3.10;;
39426;SDS011;25938;48.470;1.486;2023-02-11T13:45:59;9.23;;;4.97;;
39426;SDS011;25938;48.470;1.486;2023-02-11T13:48:27;4.63;;;3.00;;
39426;SDS011;25938;48.470;1.486;2023-02-11T13:51:05;3.80;;;3.10;;
39426;SDS011;25938;48.470;1.486;2023-02-11T13:53:48;3.97;;;2.63;;
39426;SDS011;25938;48.470;1.486;2023-02-11T13:56:26;6.10;;;3.03;;
39426;SDS011;25938;48.470;1.486;2023-02-11T13:58:58;2.88;;;2.17;;
39426;SDS011;25938;48.470;1.486;2023-02-11T14:01:40;5.90;;;2.60;;
39426;SDS011;25938;48.470;1.486;2023-02-11T14:04:22;4.07;;;2.35;;
39426;SDS011;25938;48.470;1.486;2023-02-11T14:07:27;3.15;;;2.00;;
39426;SDS011;25938;48.470;1.486;2023-02-11T14:16:08;2.15;;;1.92;;
39426;SDS011;25938;48.470;1.486;2023-02-11T14:21:18;4.00;;;2.10;;
39426;SDS011;25938;48.470;1.486;2023-02-11T14:23:44;1.83;;;1.50;;
39426;SDS011;25938;48.470;1.486;2023-02-11T14:28:58;2.70;;;2.05;;
39426;SDS011;25938;48.470;1.486;2023-02-11T14:37:37;3.03;;;1.58;;
39426;SDS011;25938;48.470;1.486;2023-02-11T14:42:55;4.00;;;2.33;;
39426;SDS011;25938;48.470;1.486;2023-02-11T14:45:26;2.03;;;1.52;;
39426;SDS011;25938;48.470;1.486;2023-02-11T14:50:30;3.75;;;1.52;;
39426;SDS011;25938;48.470;1.486;2023-02-11T14:53:05;2.47;;;1.90;;
39426;SDS011;25938;48.470;1.486;2023-02-11T14:55:38;1.70;;;1.48;;
39426;SDS011;25938;48.470;1.486;2023-02-11T14:58:10;2.65;;;1.70;;
39426;SDS011;25938;48.470;1.486;2023-02-11T15:03:27;4.07;;;1.55;;
39426;SDS011;25938;48.470;1.486;2023-02-11T15:06:04;2.97;;;1.50;;
39426;SDS011;25938;48.470;1.486;2023-02-11T15:08:35;2.88;;;1.65;;
39426;SDS011;25938;48.470;1.486;2023-02-11T15:11:03;2.08;;;1.60;;
39426;SDS011;25938;48.470;1.486;2023-02-11T15:13:34;1.92;;;1.40;;
39426;SDS011;25938;48.470;1.486;2023-02-11T15:16:03;2.15;;;1.75;;
39426;SDS011;25938;48.470;1.486;2023-02-11T15:18:38;1.95;;;1.63;;
39426;SDS011;25938;48.470;1.486;2023-02-11T15:21:07;1.25;;;1.15;;
39426;SDS011;25938;48.470;1.486;2023-02-11T15:23:34;2.15;;;1.95;;
39426;SDS011;25938;48.470;1.486;2023-02-11T15:26:00;1.98;;;1.30;;
39426;SDS011;25938;48.470;1.486;2023-02-11T15:28:33;3.40;;;1.40;;
39426;SDS011;25938;48.470;1.486;2023-02-11T15:31:01;2.88;;;1.20;;
39426;SDS011;25938;48.470;1.486;2023-02-11T15:33:37;1.95;;;1.48;;
39426;SDS011;25938;48.470;1.486;2023-02-11T15:36:03;4.10;;;1.88;;
39426;SDS011;25938;48.470;1.486;2023-02-11T15:38:29;1.83;;;1.05;;
39426;SDS011;25938;48.470;1.486;2023-02-11T15:40:57;2.45;;;1.58;;
39426;SDS011;25938;48.470;1.486;2023-02-11T15:43:38;2.25;;;1.13;;
39426;SDS011;25938;48.470;1.486;2023-02-11T15:46:06;1.27;;;1.17;;
39426;SDS011;25938;48.470;1.486;2023-02-11T15:48:52;3.58;;;1.67;;
39426;SDS011;25938;48.470;1.486;2023-02-11T15:51:23;1.52;;;1.40;;
39426;SDS011;25938;48.470;1.486;2023-02-11T15:53:54;2.13;;;1.45;;
39426;SDS011;25938;48.470;1.486;2023-02-11T15:56:28;4.13;;;1.40;;
39426;SDS011;25938;48.470;1.486;2023-02-11T15:58:59;2.60;;;1.38;;
39426;SDS011;25938;48.470;1.486;2023-02-11T16:02:09;1.88;;;1.27;;
39426;SDS011;25938;48.470;1.486;2023-02-11T16:04:48;2.45;;;1.48;;
39426;SDS011;25938;48.470;1.486;2023-02-11T16:07:45;2.60;;;1.85;;
39426;SDS011;25938;48.470;1.486;2023-02-11T16:20:47;3.58;;;1.95;;
39426;SDS011;25938;48.470;1.486;2023-02-11T16:23:17;3.22;;;1.67;;
39426;SDS011;25938;48.470;1.486;2023-02-11T16:25:47;2.65;;;1.63;;
39426;SDS011;25938;48.470;1.486;2023-02-11T16:28:15;3.08;;;2.58;;
39426;SDS011;25938;48.470;1.486;2023-02-11T16:30:40;3.45;;;1.80;;
39426;SDS011;25938;48.470;1.486;2023-02-11T16:33:08;3.90;;;1.98;;
39426;SDS011;25938;48.470;1.486;2023-02-11T16:35:35;2.22;;;2.08;;
39426;SDS011;25938;48.470;1.486;2023-02-11T16:38:01;4.03;;;2.10;;
39426;SDS011;25938;48.470;1.486;2023-02-11T16:40:27;4.68;;;2.10;;
39426;SDS011;25938;48.470;1.486;2023-02-11T16:42:53;4.35;;;2.67;;
39426;SDS011;25938;48.470;1.486;2023-02-11T16:45:18;3.05;;;1.65;;
39426;SDS011;25938;48.470;1.486;2023-02-11T16:47:44;3.08;;;1.73;;
39426;SDS011;25938;48.470;1.486;2023-02-11T16:50:17;1.95;;;1.50;;
39426;SDS011;25938;48.470;1.486;2023-02-11T16:52:48;2.15;;;1.73;;
39426;SDS011;25938;48.470;1.486;2023-02-11T16:55:16;2.45;;;1.55;;
39426;SDS011;25938;48.470;1.486;2023-02-11T16:57:42;3.25;;;2.10;;
39426;SDS011;25938;48.470;1.486;2023-02-11T17:00:07;1.98;;;1.77;;
39426;SDS011;25938;48.470;1.486;2023-02-11T17:02:35;2.85;;;1.98;;
39426;SDS011;25938;48.470;1.486;2023-02-11T17:05:05;4.05;;;1.80;;
39426;SDS011;25938;48.470;1.486;2023-02-11T17:07:39;2.60;;;2.00;;
39426;SDS011;25938;48.470;1.486;2023-02-11T17:10:12;2.00;;;1.75;;
39426;SDS011;25938;48.470;1.486;2023-02-11T17:12:42;1.73;;;1.63;;
39426;SDS011;25938;48.470;1.486;2023-02-11T17:15:07;2.22;;;1.67;;
39426;SDS011;25938;48.470;1.486;2023-02-11T17:17:33;3.20;;;1.35;;
39426;SDS011;25938;48.470;1.486;2023-02-11T17:19:59;2.72;;;1.73;;
39426;SDS011;25938;48.470;1.486;2023-02-11T17:22:25;2.30;;;1.77;;
39426;SDS011;25938;48.470;1.486;2023-02-11T17:24:51;2.15;;;1.83;;
39426;SDS011;25938;48.470;1.486;2023-02-11T17:27:16;1.95;;;1.70;;
39426;SDS011;25938;48.470;1.486;2023-02-11T17:29:42;3.55;;;2.70;;
39426;SDS011;25938;48.470;1.486;2023-02-11T17:32:07;2.35;;;2.08;;
39426;SDS011;25938;48.470;1.486;2023-02-11T17:34:33;3.97;;;2.53;;
39426;SDS011;25938;48.470;1.486;2023-02-11T17:36:59;3.20;;;2.72;;
39426;SDS011;25938;48.470;1.486;2023-02-11T17:39:27;7.00;;;5.30;;
39426;SDS011;25938;48.470;1.486;2023-02-11T17:41:52;7.40;;;4.53;;